Time;durP1;ratioP1;P1;durP2;ratioP2;P2;SDS_P1;SDS_P2;PMS_P1;PMS_P2;Temp;Humidity;BMP_temperature;BMP_pressure;BME280_temperature;BME280_humidity;BME280_pressure;Samples;Min_cycle;Max_cycle;Signal;HPM_P1;HPM_P2
2021/10/17 00:00:08;;;;;;;16.42;11.13;;;;;;;2.84;99.75;101403.63;686646;28;1143;-56
2021/10/17 00:00:33;;;;;;;15.23;11.48;;;;;;;2.87;99.55;101392.53;686692;28;1058;-56
2021/10/17 00:00:53;;;;;;;15.53;11.00;;;;;;;2.85;99.56;101404.50;685475;28;4529;-54
2021/10/17 00:01:13;;;;;;;16.70;11.00;;;;;;;2.84;99.70;101398.47;687084;28;1161;-54
2021/10/17 00:01:34;;;;;;;18.33;11.20;;;;;;;2.85;99.86;101400.22;686537;28;1095;-56
2021/10/17 00:01:54;;;;;;;18.58;11.57;;;;;;;2.87;99.47;101402.88;685694;28;1356;-54
2021/10/17 00:02:15;;;;;;;17.13;11.30;;;;;;;2.90;98.96;101393.50;687530;28;1001;-53
2021/10/17 00:02:35;;;;;;;18.73;11.52;;;;;;;2.94;99.13;101396.22;687516;28;1200;-56
2021/10/17 00:02:57;;;;;;;17.70;11.25;;;;;;;2.92;98.77;101395.28;686143;28;1914;-56
2021/10/17 00:03:17;;;;;;;18.13;10.95;;;;;;;2.93;98.92;101402.22;686990;28;1129;-52
2021/10/17 00:03:37;;;;;;;18.17;11.10;;;;;;;2.92;98.93;101400.44;683740;28;1108;-55
2021/10/17 00:03:57;;;;;;;14.18;10.10;;;;;;;3.01;98.22;101393.94;682382;28;4466;-56
2021/10/17 00:04:18;;;;;;;13.60;9.80;;;;;;;3.09;97.94;101396.81;681938;28;1029;-53
2021/10/17 00:04:38;;;;;;;13.53;9.53;;;;;;;3.19;97.02;101395.44;681118;28;3596;-56
2021/10/17 00:04:59;;;;;;;13.87;9.80;;;;;;;3.21;97.17;101401.53;681803;28;1441;-53
2021/10/17 00:05:24;;;;;;;13.90;10.03;;;;;;;3.19;98.00;101398.03;679631;28;1419;-54
2021/10/17 00:05:45;;;;;;;13.82;10.10;;;;;;;3.15;96.81;101394.44;681293;28;1573;-57
2021/10/17 00:06:05;;;;;;;13.83;9.53;;;;;;;3.17;97.18;101402.25;683144;28;1247;-55
2021/10/17 00:06:28;;;;;;;13.15;9.07;;;;;;;3.24;96.66;101401.69;685179;28;1109;-56
2021/10/17 00:06:48;;;;;;;12.95;9.32;;;;;;;3.24;96.79;101401.69;685025;28;1118;-53
2021/10/17 00:07:10;;;;;;;14.60;9.77;;;;;;;3.20;96.66;101399.81;685597;28;4255;-56
2021/10/17 00:07:30;;;;;;;13.95;9.95;;;;;;;3.14;96.66;101396.97;686848;28;1129;-56
2021/10/17 00:07:52;;;;;;;13.02;9.52;;;;;;;3.12;96.93;101399.50;686121;28;914;-55
2021/10/17 00:08:12;;;;;;;13.38;9.60;;;;;;;3.08;96.64;101397.63;685360;28;2026;-56
2021/10/17 00:08:33;;;;;;;13.05;9.52;;;;;;;3.09;96.31;101396.81;686559;28;3588;-55
2021/10/17 00:08:57;;;;;;;14.85;9.82;;;;;;;3.10;96.92;101402.84;686315;28;1183;-56
2021/10/17 00:09:18;;;;;;;14.90;9.30;;;;;;;3.13;96.34;101402.94;687736;28;1037;-54
2021/10/17 00:09:38;;;;;;;12.80;9.03;;;;;;;3.22;95.92;101404.16;686599;28;1347;-56
2021/10/17 00:10:00;;;;;;;12.48;8.85;;;;;;;3.34;95.42;101401.19;684874;28;5003;-56
2021/10/17 00:10:24;;;;;;;12.57;9.10;;;;;;;3.47;95.33;101404.22;686183;28;1070;-53
2021/10/17 00:10:45;;;;;;;12.32;8.98;;;;;;;3.46;94.78;101397.28;686477;28;1399;-57
2021/10/17 00:11:06;;;;;;;13.38;9.00;;;;;;;3.45;94.98;101403.25;686410;28;2919;-55
2021/10/17 00:11:27;;;;;;;12.67;8.63;;;;;;;3.41;95.04;101405.75;685108;28;3600;-52
2021/10/17 00:11:47;;;;;;;13.02;9.07;;;;;;;3.36;94.55;101398.66;683066;28;1122;-57
2021/10/17 00:12:10;;;;;;;13.23;9.33;;;;;;;3.29;95.39;101402.69;684614;28;1393;-54
2021/10/17 00:12:30;;;;;;;16.05;9.35;;;;;;;3.23;94.98;101400.78;683710;28;1186;-54
2021/10/17 00:12:53;;;;;;;16.80;9.33;;;;;;;3.17;95.40;101402.25;683728;28;4595;-56
2021/10/17 00:13:13;;;;;;;13.40;9.55;;;;;;;3.13;95.37;101397.78;684185;28;1267;-56
2021/10/17 00:13:33;;;;;;;12.70;9.23;;;;;;;3.11;95.73;101408.06;684796;28;1065;-53
2021/10/17 00:13:54;;;;;;;12.23;9.02;;;;;;;3.13;95.32;101406.44;685083;28;961;-54
2021/10/17 00:14:14;;;;;;;12.53;9.23;;;;;;;3.20;95.65;101408.41;686077;28;1212;-53
2021/10/17 00:14:35;;;;;;;13.15;8.88;;;;;;;3.24;94.61;101409.44;686184;28;1211;-52
2021/10/17 00:14:56;;;;;;;14.18;8.77;;;;;;;3.24;94.81;101406.84;686008;28;1998;-56
2021/10/17 00:15:19;;;;;;;13.57;9.23;;;;;;;3.19;95.33;101403.19;685579;28;3867;-55
2021/10/17 00:15:40;;;;;;;12.60;9.45;;;;;;;3.18;95.94;101404.88;686344;28;1134;-51
2021/10/17 00:16:00;;;;;;;13.07;9.48;;;;;;;3.17;95.14;101404.84;685020;28;4349;-56
2021/10/17 00:16:21;;;;;;;12.70;9.07;;;;;;;3.16;94.91;101405.69;685727;28;1190;-55
2021/10/17 00:16:41;;;;;;;13.68;8.85;;;;;;;3.21;94.84;101409.28;685568;28;3001;-52
2021/10/17 00:17:04;;;;;;;12.27;8.70;;;;;;;3.27;95.33;101404.38;685795;28;1228;-53
2021/10/17 00:17:24;;;;;;;11.90;8.95;;;;;;;3.26;94.94;101402.59;686216;28;1398;-54
2021/10/17 00:17:45;;;;;;;11.70;8.37;;;;;;;3.29;94.31;101400.13;686162;28;1274;-53
2021/10/17 00:18:07;;;;;;;12.70;8.10;;;;;;;3.33;94.77;101404.56;686625;28;1307;-54
2021/10/17 00:18:28;;;;;;;12.82;8.70;;;;;;;3.30;94.33;101403.59;685445;28;1321;-54
2021/10/17 00:18:48;;;;;;;13.10;9.00;;;;;;;3.29;94.15;101402.69;685421;28;1621;-56
2021/10/17 00:19:09;;;;;;;12.30;8.95;;;;;;;3.32;94.44;101399.34;685959;28;4424;-54
2021/10/17 00:19:29;;;;;;;12.60;8.67;;;;;;;3.38;94.65;101402.19;687058;28;1126;-51
2021/10/17 00:19:50;;;;;;;12.93;8.45;;;;;;;3.44;94.09;101406.69;685421;28;1010;-54
2021/10/17 00:20:12;;;;;;;12.73;8.23;;;;;;;3.40;93.21;101406.56;686192;28;1263;-53
2021/10/17 00:20:33;;;;;;;13.38;8.50;;;;;;;3.43;94.06;101404.91;685149;28;1534;-52
2021/10/17 00:20:53;;;;;;;12.00;8.48;;;;;;;3.46;93.90;101405.94;685885;28;1242;-54
2021/10/17 00:21:14;;;;;;;13.00;8.53;;;;;;;3.41;92.98;101403.16;686764;28;912;-51
2021/10/17 00:21:34;;;;;;;13.23;8.43;;;;;;;3.38;93.41;101408.22;686928;28;1220;-55
2021/10/17 00:21:54;;;;;;;12.63;8.50;;;;;;;3.40;93.11;101408.28;685518;28;4407;-55
2021/10/17 00:22:15;;;;;;;11.20;8.32;;;;;;;3.43;93.23;101410.09;687321;28;1382;-54
2021/10/17 00:22:37;;;;;;;12.77;8.40;;;;;;;3.36;93.11;101404.69;682922;28;3114;-53
2021/10/17 00:22:57;;;;;;;12.82;8.52;;;;;;;3.36;93.56;101402.09;682431;28;3848;-53
2021/10/17 00:23:18;;;;;;;13.43;8.75;;;;;;;3.31;93.03;101405.34;684084;28;1174;-55
2021/10/17 00:23:39;;;;;;;12.80;8.65;;;;;;;3.20;94.00;101405.84;682550;28;1023;-54
2021/10/17 00:23:59;;;;;;;12.50;8.50;;;;;;;3.10;94.43;101402.84;683894;28;1041;-54
2021/10/17 00:24:20;;;;;;;12.70;8.63;;;;;;;3.01;94.85;101404.25;684493;28;1017;-53
2021/10/17 00:24:40;;;;;;;12.73;8.77;;;;;;;2.98;95.59;101406.72;686445;28;1139;-52
2021/10/17 00:25:00;;;;;;;13.82;8.52;;;;;;;3.03;95.59;101410.38;684847;28;4422;-56
2021/10/17 00:25:21;;;;;;;14.30;9.00;;;;;;;3.01;95.58;101409.41;686715;28;1109;-55
2021/10/17 00:25:42;;;;;;;13.90;9.23;;;;;;;2.95;96.11;101411.78;683625;28;1951;-53
2021/10/17 00:26:02;;;;;;;13.27;9.00;;;;;;;2.87;95.38;101408.03;683614;28;1057;-56
2021/10/17 00:26:25;;;;;;;14.00;9.23;;;;;;;2.80;95.18;101414.66;683472;28;3251;-56
2021/10/17 00:26:46;;;;;;;13.55;9.13;;;;;;;2.76;95.01;101411.91;683311;28;1216;-54
2021/10/17 00:27:06;;;;;;;12.05;8.80;;;;;;;2.80;95.57;101414.66;683296;28;1483;-54
2021/10/17 00:27:27;;;;;;;12.38;9.10;;;;;;;2.87;95.92;101411.47;684169;28;1123;-55
2021/10/17 00:27:48;;;;;;;12.60;9.03;;;;;;;2.94;95.60;101412.59;683234;28;1122;-56
2021/10/17 00:28:15;;;;;;;12.95;9.15;;;;;;;2.93;96.29;101418.59;680352;28;5019;-55
2021/10/17 00:28:41;;;;;;;12.98;9.02;;;;;;;2.95;95.92;101414.38;674958;29;1884;-56
2021/10/17 00:29:02;;;;;;;13.55;9.25;;;;;;;2.93;95.38;101413.41;675858;29;1280;-56
2021/10/17 00:29:22;;;;;;;12.43;9.27;;;;;;;2.93;95.32;101410.84;676841;29;1194;-54
2021/10/17 00:29:42;;;;;;;13.23;9.15;;;;;;;2.93;95.69;101421.16;675729;29;1162;-56
2021/10/17 00:30:04;;;;;;;15.13;9.10;;;;;;;2.96;95.10;101407.50;674890;29;3313;-53
2021/10/17 00:30:25;;;;;;;14.40;8.85;;;;;;;2.98;95.47;101411.91;675406;29;3493;-56
2021/10/17 00:30:46;;;;;;;12.73;9.18;;;;;;;2.99;95.45;101413.66;674959;29;1305;-57
2021/10/17 00:31:06;;;;;;;14.87;9.00;;;;;;;3.01;95.60;101408.56;674353;29;4367;-54
2021/10/17 00:31:27;;;;;;;13.80;8.97;;;;;;;3.03;95.27;101415.53;674949;29;1345;-52
2021/10/17 00:31:47;;;;;;;13.38;8.80;;;;;;;3.01;94.91;101417.19;677883;28;997;-55
2021/10/17 00:32:10;;;;;;;13.32;8.98;;;;;;;2.97;94.88;101414.44;676220;29;1446;-55
2021/10/17 00:32:30;;;;;;;12.43;8.63;;;;;;;3.01;94.60;101417.19;675773;29;1107;-56
2021/10/17 00:32:51;;;;;;;12.35;8.70;;;;;;;3.10;94.66;101411.47;675712;29;1222;-55
2021/10/17 00:33:12;;;;;;;13.00;9.10;;;;;;;3.16;94.35;101409.13;677653;28;1268;-57
2021/10/17 00:33:32;;;;;;;11.47;8.67;;;;;;;3.20;94.23;101411.00;677534;29;1425;-54
2021/10/17 00:33:53;;;;;;;11.20;8.30;;;;;;;3.15;93.88;101416.81;678673;28;4512;-57
2021/10/17 00:34:14;;;;;;;11.50;8.18;;;;;;;3.11;94.37;101418.41;677371;28;1319;-57
2021/10/17 00:34:35;;;;;;;12.45;8.48;;;;;;;3.11;94.63;101420.13;679001;28;1237;-53
2021/10/17 00:34:58;;;;;;;12.63;8.82;;;;;;;3.06;94.73;101414.78;680479;28;1505;-56
2021/10/17 00:35:18;;;;;;;10.85;8.60;;;;;;;3.02;95.49;101413.78;678139;29;1341;-56
2021/10/17 00:35:40;;;;;;;11.93;8.87;;;;;;;3.00;95.16;101409.38;675082;29;1545;-56
2021/10/17 00:36:01;;;;;;;11.55;8.63;;;;;;;3.00;95.28;101414.53;674231;29;1431;-53
2021/10/17 00:36:21;;;;;;;12.80;8.68;;;;;;;2.96;95.71;101417.81;677364;29;1439;-55
2021/10/17 00:36:42;;;;;;;12.95;9.43;;;;;;;2.94;95.24;101412.59;673325;29;1288;-54
2021/10/17 00:37:03;;;;;;;12.40;9.17;;;;;;;2.90;95.59;101414.16;673181;29;4564;-56
2021/10/17 00:37:26;;;;;;;12.50;8.88;;;;;;;2.88;95.78;101414.94;675856;29;1229;-55
2021/10/17 00:37:47;;;;;;;11.18;8.43;;;;;;;2.88;96.07;101414.94;675371;28;1366;-52
2021/10/17 00:38:08;;;;;;;11.65;8.52;;;;;;;2.94;95.34;101417.78;678703;29;1157;-53
2021/10/17 00:38:28;;;;;;;12.82;8.68;;;;;;;3.02;95.40;101415.50;678025;29;1026;-53
2021/10/17 00:38:49;;;;;;;12.23;8.50;;;;;;;3.06;95.01;101417.38;678096;28;1135;-56
2021/10/17 00:39:09;;;;;;;11.50;8.70;;;;;;;3.04;94.97;101416.41;681403;28;3550;-57
2021/10/17 00:39:30;;;;;;;11.48;8.43;;;;;;;3.01;94.81;101413.72;680949;28;1129;-56
2021/10/17 00:39:51;;;;;;;12.47;8.60;;;;;;;2.99;95.12;101418.84;680742;28;4522;-56
2021/10/17 00:40:15;;;;;;;10.75;8.52;;;;;;;3.00;95.37;101425.75;682282;28;3575;-54
2021/10/17 00:40:35;;;;;;;11.27;8.55;;;;;;;3.01;94.99;101417.19;675550;28;1301;-56
2021/10/17 00:40:56;;;;;;;10.10;7.97;;;;;;;3.05;94.57;101415.59;676790;29;1340;-56
2021/10/17 00:41:17;;;;;;;11.57;8.50;;;;;;;3.06;94.69;101414.78;677149;29;1149;-55
2021/10/17 00:41:38;;;;;;;11.50;8.52;;;;;;;3.04;95.36;101414.69;676851;29;1057;-56
2021/10/17 00:42:01;;;;;;;10.98;8.30;;;;;;;3.04;95.34;101412.13;678270;29;1221;-57
2021/10/17 00:42:21;;;;;;;10.55;8.20;;;;;;;3.03;95.00;101415.53;677753;29;2014;-55
2021/10/17 00:42:43;;;;;;;11.40;8.35;;;;;;;3.05;94.65;101413.03;675382;29;1180;-54
2021/10/17 00:43:04;;;;;;;11.60;8.32;;;;;;;3.10;94.54;101410.59;675207;29;4435;-56
2021/10/17 00:43:24;;;;;;;12.35;8.38;;;;;;;3.09;94.74;101414.00;677201;28;2076;-55
2021/10/17 00:43:46;;;;;;;10.30;7.80;;;;;;;3.11;94.76;101422.69;678342;28;1237;-57
2021/10/17 00:44:06;;;;;;;12.18;8.10;;;;;;;3.10;94.47;101415.75;680500;28;1301;-55
2021/10/17 00:44:27;;;;;;;11.87;8.20;;;;;;;3.15;94.40;101414.25;682375;28;1376;-55
2021/10/17 00:44:58;;;;;;;12.25;8.25;;;;;;;3.21;94.77;101415.34;681724;28;1287;-55
2021/10/17 00:45:21;;;;;;;11.30;8.07;;;;;;;3.27;94.04;101404.38;679906;28;1031;-56
2021/10/17 00:45:41;;;;;;;10.63;8.10;;;;;;;3.29;93.47;101410.44;678714;28;1074;-55
2021/10/17 00:46:01;;;;;;;11.80;8.37;;;;;;;3.28;93.26;101408.72;676969;28;4780;-57
2021/10/17 00:46:22;;;;;;;12.20;8.23;;;;;;;3.29;93.52;101409.59;678788;29;3928;-53
2021/10/17 00:46:44;;;;;;;11.73;8.20;;;;;;;3.24;92.57;101410.28;680475;28;1050;-55
2021/10/17 00:47:05;;;;;;;11.77;8.32;;;;;;;3.20;93.13;101407.56;681351;28;1177;-53
2021/10/17 00:47:26;;;;;;;11.83;8.50;;;;;;;3.19;93.05;101410.94;680607;28;1538;-52
2021/10/17 00:47:47;;;;;;;10.50;8.00;;;;;;;3.14;93.33;101399.56;678509;29;1081;-56
2021/10/17 00:48:07;;;;;;;11.20;8.00;;;;;;;3.08;93.36;101404.50;679660;28;1162;-56
2021/10/17 00:48:27;;;;;;;12.45;8.85;;;;;;;3.02;94.35;101407.75;680594;28;1141;-57
2021/10/17 00:48:48;;;;;;;13.27;9.60;;;;;;;3.00;94.93;101406.78;678940;29;971;-53
2021/10/17 00:49:09;;;;;;;13.90;9.07;;;;;;;2.95;94.62;101401.47;681007;28;4540;-54
2021/10/17 00:49:29;;;;;;;13.60;9.20;;;;;;;2.88;95.26;101410.66;683410;28;3824;-56
2021/10/17 00:49:50;;;;;;;13.73;9.10;;;;;;;2.83;94.74;101406.16;682321;28;1021;-55
2021/10/17 00:50:11;;;;;;;13.10;8.70;;;;;;;2.74;95.01;101404.06;683287;28;1363;-54
2021/10/17 00:50:32;;;;;;;12.32;9.10;;;;;;;2.68;95.17;101409.00;684655;28;1251;-52
2021/10/17 00:50:53;;;;;;;13.18;9.40;;;;;;;2.70;95.42;101403.09;684727;28;942;-56
2021/10/17 00:51:15;;;;;;;13.85;9.07;;;;;;;2.77;95.72;101405.88;685252;28;1415;-54
2021/10/17 00:51:35;;;;;;;12.73;8.93;;;;;;;2.78;95.45;101405.94;683296;28;1384;-53
2021/10/17 00:51:56;;;;;;;13.38;9.45;;;;;;;2.77;96.13;101408.47;685199;28;5737;-57
2021/10/17 00:52:16;;;;;;;13.33;9.47;;;;;;;2.73;95.42;101403.19;683731;28;1860;-55
2021/10/17 00:52:40;;;;;;;14.32;9.45;;;;;;;2.72;95.36;101408.31;682273;28;3463;-56
2021/10/17 00:53:01;;;;;;;13.55;8.75;;;;;;;2.66;95.34;101406.38;684183;28;1362;-54
2021/10/17 00:53:21;;;;;;;13.88;9.50;;;;;;;2.64;96.15;101410.56;681709;28;1236;-55
2021/10/17 00:53:43;;;;;;;14.03;9.70;;;;;;;2.62;96.35;101409.66;680099;28;1132;-54
2021/10/17 00:54:03;;;;;;;13.57;9.52;;;;;;;2.60;96.78;101407.81;679197;29;1307;-54
2021/10/17 00:54:24;;;;;;;14.40;9.23;;;;;;;2.57;97.11;101405.13;678797;29;1220;-54
2021/10/17 00:54:45;;;;;;;16.67;9.25;;;;;;;2.49;96.30;101405.72;678533;29;1212;-56
2021/10/17 00:55:07;;;;;;;16.88;9.52;;;;;;;2.46;96.38;101404.69;675181;29;4743;-54
2021/10/17 00:55:29;;;;;;;13.77;9.27;;;;;;;2.46;96.50;101407.28;675752;29;3251;-56
2021/10/17 00:55:49;;;;;;;11.63;8.90;;;;;;;2.48;96.06;101400.44;677335;28;1439;-56
2021/10/17 00:56:10;;;;;;;14.02;9.52;;;;;;;2.52;96.33;101404.91;682354;28;1099;-56
2021/10/17 00:56:30;;;;;;;12.53;9.20;;;;;;;2.54;97.12;101404.16;681630;28;1559;-55
2021/10/17 00:56:51;;;;;;;13.48;9.75;;;;;;;2.53;97.50;101401.53;682275;28;1129;-52
2021/10/17 00:57:12;;;;;;;15.37;9.67;;;;;;;2.49;96.66;101404.81;684286;28;1257;-55
2021/10/17 00:57:34;;;;;;;14.95;9.85;;;;;;;2.46;97.10;101400.41;685138;28;981;-54
2021/10/17 00:57:56;;;;;;;14.15;9.82;;;;;;;2.45;96.64;101400.34;680236;28;4602;-55
2021/10/17 00:58:17;;;;;;;13.63;9.23;;;;;;;2.47;97.04;101401.28;682490;28;1371;-52
2021/10/17 00:58:37;;;;;;;12.93;9.15;;;;;;;2.53;96.70;101396.38;680206;28;3928;-53
2021/10/17 00:58:58;;;;;;;11.87;9.23;;;;;;;2.60;97.09;101405.25;681146;28;1326;-57
2021/10/17 00:59:18;;;;;;;13.97;9.90;;;;;;;2.63;97.00;101398.50;679635;28;1636;-55
2021/10/17 00:59:39;;;;;;;13.67;9.53;;;;;;;2.66;96.74;101403.78;679134;28;1078;-52
2021/10/17 00:59:59;;;;;;;13.15;9.50;;;;;;;2.65;96.43;101404.59;682269;28;1221;-53
2021/10/17 01:00:19;;;;;;;13.73;9.37;;;;;;;2.66;96.20;101400.31;681851;28;1101;-56
2021/10/17 01:00:40;;;;;;;12.15;8.73;;;;;;;2.66;96.83;101406.38;684727;28;1117;-53
2021/10/17 01:01:01;;;;;;;11.00;8.80;;;;;;;2.63;96.76;101400.19;684299;28;4586;-55
2021/10/17 01:01:21;;;;;;;12.23;9.05;;;;;;;2.62;96.22;101407.06;683849;28;1501;-52
2021/10/17 01:01:41;;;;;;;12.50;9.00;;;;;;;2.65;96.13;101407.19;683600;28;2056;-52
2021/10/17 01:02:02;;;;;;;12.10;8.90;;;;;;;2.65;96.30;101406.31;683265;28;2392;-55
2021/10/17 01:02:23;;;;;;;11.37;8.93;;;;;;;2.68;96.90;101404.72;680977;28;1237;-57
2021/10/17 01:02:43;;;;;;;11.88;8.65;;;;;;;2.75;96.18;101405.84;682285;28;1315;-53
2021/10/17 01:03:04;;;;;;;11.27;8.37;;;;;;;2.81;95.72;101402.59;677602;28;1981;-54
2021/10/17 01:03:25;;;;;;;11.88;8.75;;;;;;;2.81;95.95;101405.19;679002;29;1299;-55
2021/10/17 01:03:45;;;;;;;13.50;9.18;;;;;;;2.83;96.07;101399.25;678563;28;1274;-55
2021/10/17 01:04:07;;;;;;;13.33;9.23;;;;;;;2.83;95.63;101408.72;679366;29;4525;-55
2021/10/17 01:04:27;;;;;;;12.85;8.50;;;;;;;2.82;95.87;101401.78;682068;28;1082;-56
2021/10/17 01:04:48;;;;;;;12.30;8.47;;;;;;;2.83;95.44;101406.16;681128;28;3380;-56
2021/10/17 01:05:14;;;;;;;11.70;8.80;;;;;;;2.86;95.37;101403.69;682265;28;1564;-57
2021/10/17 01:05:35;;;;;;;10.43;8.60;;;;;;;2.87;95.39;101398.56;682774;28;1148;-53
2021/10/17 01:05:56;;;;;;;11.68;8.82;;;;;;;2.92;94.98;101401.31;684155;28;1377;-53
2021/10/17 01:06:16;;;;;;;13.25;8.80;;;;;;;2.97;94.53;101396.34;684329;28;1176;-52
2021/10/17 01:06:37;;;;;;;12.47;8.63;;;;;;;3.00;95.01;101399.03;683216;28;1087;-53
2021/10/17 01:06:58;;;;;;;12.82;8.77;;;;;;;3.00;95.14;101394.75;681313;28;4596;-55
2021/10/17 01:07:18;;;;;;;12.07;8.88;;;;;;;3.02;94.34;101398.28;681447;28;1374;-57
2021/10/17 01:07:39;;;;;;;11.43;8.67;;;;;;;3.09;94.08;101398.50;680845;28;1917;-56
2021/10/17 01:07:59;;;;;;;11.45;8.43;;;;;;;3.15;94.17;101396.16;681037;28;4181;-52
2021/10/17 01:08:21;;;;;;;12.70;8.40;;;;;;;3.14;93.80;101397.84;678965;29;1862;-55
2021/10/17 01:08:42;;;;;;;12.57;8.82;;;;;;;3.13;94.06;101395.19;672946;29;1283;-52
2021/10/17 01:09:03;;;;;;;12.57;8.97;;;;;;;3.12;94.44;101399.50;675180;29;1334;-56
2021/10/17 01:09:24;;;;;;;12.40;8.88;;;;;;;3.09;93.46;101399.41;671304;29;2130;-54
2021/10/17 01:09:44;;;;;;;11.50;8.43;;;;;;;3.09;93.38;101394.22;671305;29;1233;-57
2021/10/17 01:10:10;;;;;;;12.43;8.65;;;;;;;3.01;93.91;101396.50;672999;29;6555;-57
2021/10/17 01:10:30;;;;;;;11.02;8.52;;;;;;;2.97;94.21;101389.47;677561;29;1066;-55
2021/10/17 01:10:56;;;;;;;10.73;8.70;;;;;;;2.91;94.94;101389.25;678321;29;2132;-56
2021/10/17 01:11:16;;;;;;;11.45;8.73;;;;;;;2.92;94.57;101388.41;677921;29;3637;-53
2021/10/17 01:11:45;;;;;;;12.53;8.30;;;;;;;2.96;94.49;101392.00;676179;29;1195;-54
2021/10/17 01:12:09;;;;;;;11.88;8.65;;;;;;;2.91;94.54;101394.41;678687;29;1523;-55
2021/10/17 01:12:29;;;;;;;12.88;8.80;;;;;;;2.88;95.40;101405.50;676647;29;1315;-53
2021/10/17 01:12:50;;;;;;;12.50;8.67;;;;;;;2.83;95.27;101395.81;675517;29;4445;-52
2021/10/17 01:13:19;;;;;;;12.38;8.70;;;;;;;2.79;95.41;101391.34;675986;29;3257;-56
2021/10/17 01:13:40;;;;;;;11.90;9.00;;;;;;;2.73;95.09;101394.59;674859;29;1741;-53
2021/10/17 01:14:01;;;;;;;11.75;8.70;;;;;;;2.78;95.26;101392.16;677621;29;3542;-55
2021/10/17 01:14:25;;;;;;;11.73;8.45;;;;;;;2.77;94.81;101395.56;678704;29;1268;-56
2021/10/17 01:14:45;;;;;;;11.95;8.27;;;;;;;2.77;95.47;101391.31;677443;29;1260;-56
2021/10/17 01:15:07;;;;;;;12.80;9.00;;;;;;;2.70;95.45;101397.91;676017;29;1207;-56
2021/10/17 01:15:33;;;;;;;10.68;8.70;;;;;;;2.59;95.19;101396.63;675106;29;1661;-55
2021/10/17 01:15:56;;;;;;;12.07;8.52;;;;;;;2.56;96.06;101399.06;675938;29;4510;-57
2021/10/17 01:16:22;;;;;;;11.07;8.48;;;;;;;2.68;96.01;101398.69;676527;29;1284;-55
2021/10/17 01:16:47;;;;;;;11.05;8.82;;;;;;;2.73;95.08;101387.69;675367;29;1535;-56
2021/10/17 01:17:08;;;;;;;10.80;8.43;;;;;;;2.72;95.27;101396.25;675575;29;2467;-52
2021/10/17 01:17:30;;;;;;;11.32;8.60;;;;;;;2.68;95.56;101396.97;675108;29;3581;-55
2021/10/17 01:17:50;;;;;;;12.68;8.90;;;;;;;2.68;95.59;101396.09;675607;29;1451;-56
2021/10/17 01:18:11;;;;;;;12.02;8.80;;;;;;;2.63;95.27;101393.34;677020;29;1420;-53
2021/10/17 01:18:35;;;;;;;12.95;9.32;;;;;;;2.64;95.94;101389.91;676034;29;1754;-53
2021/10/17 01:19:03;;;;;;;13.40;9.00;;;;;;;2.67;96.02;101395.22;677301;29;4454;-55
2021/10/17 01:19:23;;;;;;;11.93;8.90;;;;;;;2.68;95.82;101393.50;678606;29;1410;-54
2021/10/17 01:19:51;;;;;;;12.07;8.82;;;;;;;2.68;95.33;101394.38;673508;29;1573;-55
2021/10/17 01:20:13;;;;;;;11.02;8.45;;;;;;;2.71;95.02;101397.09;676188;29;3101;-54
2021/10/17 01:20:34;;;;;;;10.75;7.95;;;;;;;2.80;94.49;101398.28;676290;29;1327;-57
2021/10/17 01:20:54;;;;;;;10.60;8.18;;;;;;;2.83;94.90;101404.44;675370;29;1240;-56
2021/10/17 01:21:15;;;;;;;11.00;8.30;;;;;;;2.83;94.57;101394.09;671473;29;1488;-53
2021/10/17 01:21:38;;;;;;;10.80;8.05;;;;;;;2.85;94.56;101394.16;670999;29;1322;-56
2021/10/17 01:21:59;;;;;;;11.02;7.93;;;;;;;2.89;94.25;101393.47;671059;29;4519;-53
2021/10/17 01:22:24;;;;;;;11.73;7.95;;;;;;;2.93;94.07;101397.06;672386;29;1304;-54
2021/10/17 01:22:46;;;;;;;13.05;8.60;;;;;;;2.96;93.45;101387.69;674091;29;1575;-56
2021/10/17 01:23:06;;;;;;;10.63;7.93;;;;;;;2.98;93.85;101392.94;677583;29;1245;-55
2021/10/17 01:23:27;;;;;;;10.63;8.13;;;;;;;2.89;93.49;101394.34;679830;28;3622;-53
2021/10/17 01:23:47;;;;;;;13.40;9.13;;;;;;;2.89;93.78;101403.78;678251;28;1400;-54
2021/10/17 01:24:08;;;;;;;12.93;8.47;;;;;;;2.92;93.49;101396.16;675673;29;1502;-55
2021/10/17 01:24:28;;;;;;;12.15;8.23;;;;;;;2.99;93.39;101397.25;677065;29;1234;-55
2021/10/17 01:24:49;;;;;;;11.23;7.90;;;;;;;3.01;93.13;101391.34;679236;28;4333;-55
2021/10/17 01:25:10;;;;;;;11.93;8.20;;;;;;;3.06;93.49;101399.28;681327;28;1451;-52
2021/10/17 01:25:30;;;;;;;12.93;8.27;;;;;;;3.05;93.30;101397.50;680818;28;1400;-52
2021/10/17 01:25:51;;;;;;;12.30;8.27;;;;;;;3.02;93.34;101402.56;679524;28;1562;-54
2021/10/17 01:26:12;;;;;;;11.32;8.50;;;;;;;3.01;93.12;101393.94;678319;29;1442;-54
2021/10/17 01:26:33;;;;;;;11.40;8.10;;;;;;;2.98;93.75;101398.97;676119;29;3987;-57
2021/10/17 01:26:53;;;;;;;11.13;8.55;;;;;;;2.95;93.34;101398.88;678516;29;1195;-57
2021/10/17 01:27:14;;;;;;;10.83;7.93;;;;;;;2.92;93.44;101406.47;676220;29;1499;-53
2021/10/17 01:27:34;;;;;;;12.05;8.35;;;;;;;2.86;93.66;101401.97;676201;29;1288;-54
2021/10/17 01:27:55;;;;;;;10.77;8.60;;;;;;;2.85;93.75;101404.50;678805;28;4429;-56
2021/10/17 01:28:15;;;;;;;10.27;8.00;;;;;;;2.90;93.72;101397.81;680448;28;1597;-54
2021/10/17 01:28:36;;;;;;;11.43;7.95;;;;;;;2.95;93.63;101397.97;680860;28;1551;-57
2021/10/17 01:28:56;;;;;;;10.97;8.20;;;;;;;3.00;93.74;101399.91;680864;28;1132;-57
2021/10/17 01:29:17;;;;;;;10.48;8.23;;;;;;;3.02;93.42;101400.84;682524;28;1399;-56
2021/10/17 01:29:37;;;;;;;12.10;8.27;;;;;;;3.04;93.82;101388.88;677988;28;3926;-54
2021/10/17 01:29:59;;;;;;;11.90;7.97;;;;;;;3.08;93.02;101396.75;678923;28;1681;-55
2021/10/17 01:30:19;;;;;;;10.82;8.20;;;;;;;3.02;93.16;101398.28;681158;28;1408;-54
2021/10/17 01:30:43;;;;;;;11.48;8.07;;;;;;;2.95;92.89;101396.28;680876;28;1277;-56
2021/10/17 01:31:04;;;;;;;10.50;8.07;;;;;;;2.86;93.62;101401.09;678705;28;4466;-56
2021/10/17 01:31:36;;;;;;;10.77;7.80;;;;;;;2.84;94.09;101397.59;683388;28;1116;-54
2021/10/17 01:31:57;;;;;;;11.00;7.97;;;;;;;2.91;94.15;101399.56;678154;28;1355;-56
2021/10/17 01:32:19;;;;;;;10.48;7.60;;;;;;;2.95;93.70;101401.47;676276;29;1425;-57
2021/10/17 01:32:39;;;;;;;11.00;7.68;;;;;;;3.03;93.02;101394.88;678389;29;1230;-55
2021/10/17 01:33:00;;;;;;;11.53;8.00;;;;;;;3.07;92.67;101398.44;679279;29;1510;-53
2021/10/17 01:33:21;;;;;;;11.98;7.85;;;;;;;2.99;93.20;101398.16;674033;29;2023;-53
2021/10/17 01:33:41;;;;;;;10.77;8.03;;;;;;;2.92;93.54;101392.69;672951;29;3351;-53
2021/10/17 01:34:04;;;;;;;11.07;7.97;;;;;;;2.79;93.21;101399.09;672716;29;4605;-54
2021/10/17 01:34:24;;;;;;;11.32;7.88;;;;;;;2.67;93.51;101400.38;674849;29;1429;-57
2021/10/17 01:34:45;;;;;;;11.00;7.95;;;;;;;2.67;94.25;101400.38;674228;29;1413;-55
2021/10/17 01:35:05;;;;;;;10.57;8.07;;;;;;;2.73;94.18;101400.63;677012;29;1211;-55
2021/10/17 01:35:26;;;;;;;10.77;8.57;;;;;;;2.77;94.26;101399.03;677051;29;1473;-54
2021/10/17 01:35:47;;;;;;;9.87;8.40;;;;;;;2.77;94.55;101396.47;677415;28;1217;-56
2021/10/17 01:36:07;;;;;;;10.95;8.10;;;;;;;2.72;94.95;101401.44;677672;29;1142;-54
2021/10/17 01:36:28;;;;;;;11.37;8.50;;;;;;;2.68;95.12;101399.53;675724;29;3707;-56
2021/10/17 01:36:48;;;;;;;11.43;8.52;;;;;;;2.60;94.97;101398.34;678406;28;1527;-53
2021/10/17 01:37:09;;;;;;;11.60;8.55;;;;;;;2.52;95.14;101395.50;676157;29;5948;-56
2021/10/17 01:37:29;;;;;;;10.47;8.23;;;;;;;2.47;95.30;101402.16;676108;29;1355;-53
2021/10/17 01:37:50;;;;;;;11.20;8.30;;;;;;;2.44;95.54;101402.06;676134;29;1547;-54
2021/10/17 01:38:11;;;;;;;12.85;8.82;;;;;;;2.42;96.32;101395.06;677208;29;1237;-57
2021/10/17 01:38:31;;;;;;;13.17;8.70;;;;;;;2.43;95.96;101409.72;676678;29;1300;-51
2021/10/17 01:38:51;;;;;;;11.63;8.63;;;;;;;2.37;96.36;101403.50;678052;28;1167;-54
2021/10/17 01:39:14;;;;;;;11.17;8.67;;;;;;;2.34;96.27;101399.91;681709;28;3590;-55
2021/10/17 01:39:35;;;;;;;12.75;8.70;;;;;;;2.28;96.18;101400.53;681042;28;2043;-55
2021/10/17 01:39:55;;;;;;;13.60;9.00;;;;;;;2.25;96.01;101400.41;677901;29;4589;-56
2021/10/17 01:40:16;;;;;;;13.40;9.18;;;;;;;2.30;96.29;101398.91;677093;29;1167;-53
2021/10/17 01:40:37;;;;;;;11.63;8.50;;;;;;;2.46;96.23;101402.09;676794;29;1498;-55
2021/10/17 01:40:58;;;;;;;11.60;8.48;;;;;;;2.47;96.20;101397.00;677343;29;1125;-54
2021/10/17 01:41:18;;;;;;;11.60;8.95;;;;;;;2.53;95.57;101398.94;676993;29;1210;-55